Spirit Of Tokyo — 9V2502 — position and weather

sailwx.info

Track history (hours):
 
Tides and Currents Weather Stations Pressure Air Temp Water Temp Dewpoint Dewpoint Depression Visibility Wind Speed Wind Dir Waves Ship Positions

Spirit Of Tokyo

Last reported at 2017-Oct-02 14:38 UTC. Time now 2017-Oct-19 23:37 UTC.
Position N 25°18' W 079°47'.
Warning: this ship's position is 17 days out of date.

Length 210 m; draft 9.4 m.

Type: Ship (hazmat cat A). MMSI: 564056000.

Date/timePositionNaut miles runAvg speedWind from/ knotsBaromVisibWave heightAir tempDewpointWater temp
2017-Oct-02 14:38N 25°18' W 079°47'216.9
2017-Oct-02 14:30N 25°20' W 079°48'816.6
2017-Oct-02 14:00N 25°28' W 079°51'816.6
2017-Oct-02 13:31N 25°36' W 079°54'816.6
2017-Oct-02 13:00N 25°44' W 079°56'816.7
2017-Oct-02 12:31N 25°52' W 079°58'816.5
2017-Oct-02 12:01N 25°60' W 080°01'713.0
2017-Oct-02 11:30N 26°05' W 080°05'2 3.8
2017-Oct-02 10:59N 26°04' W 080°07'0 0.2
2017-Oct-02 10:29N 26°04' W 080°07'0 0.0
2017-Oct-02 09:59N 26°04' W 080°07'0 0.0
2017-Oct-02 09:29N 26°04' W 080°07'0 0.0
2017-Oct-02 08:50N 26°04' W 080°07'0 0.0
2017-Oct-02 08:30N 26°04' W 080°07'0 0.0
2017-Oct-02 08:00N 26°04' W 080°07'0 0.0
2017-Oct-02 07:30N 26°04' W 080°07'0 0.0
2017-Oct-02 07:00N 26°04' W 080°07'0 0.0
2017-Oct-02 06:20N 26°04' W 080°07'0 0.0
2017-Oct-02 05:57N 26°04' W 080°07'0 0.0
2017-Oct-02 05:27N 26°04' W 080°07'0 0.0
2017-Oct-02 04:56N 26°04' W 080°07'0 0.0
2017-Oct-02 04:27N 26°04' W 080°07'0 0.0
2017-Oct-02 03:56N 26°04' W 080°07'0 0.0
2017-Oct-02 03:27N 26°04' W 080°07'0 0.0
2017-Oct-02 02:57N 26°04' W 080°07'0 0.0
2017-Oct-02 02:27N 26°04' W 080°07'0 0.0
2017-Oct-02 01:59N 26°04' W 080°07'0 0.0
2017-Oct-02 01:26N 26°04' W 080°07'0 0.0
2017-Oct-02 00:56N 26°04' W 080°07'0 0.0
2017-Oct-02 00:26N 26°04' W 080°07'0 0.0
2017-Oct-01 23:56N 26°04' W 080°07'0 0.0
2017-Oct-01 23:30N 26°04' W 080°07'1 2.7
2017-Oct-01 23:00N 26°06' W 080°07'4 7.9
2017-Oct-01 22:30N 26°05' W 080°02'1 1.8
2017-Oct-01 22:00N 26°06' W 080°02'4 7.4
2017-Oct-01 21:30N 26°09' W 079°60'713.6
2017-Oct-01 21:00N 26°16' W 079°59'917.4
2017-Oct-01 20:30N 26°24' W 079°56'917.5
2017-Oct-01 20:00N 26°32' W 079°53'2217.4
2017-Oct-01 18:44N 26°53' W 079°45'517.5
2017-Oct-01 18:27N 26°58' W 079°43'309 7.6
2017-Sep-30 01:33N 32°07' W 079°49'114.5
2017-Sep-30 01:30N 32°07' W 079°49'52215.2
2017-Sep-28 15:15N 39°22' W 073°53'717.3
2017-Sep-28 14:51N 39°29' W 073°53'617.6
2017-Sep-28 14:30N 39°35' W 073°52'917.4
2017-Sep-28 14:00N 39°44' W 073°51'917.5
2017-Sep-28 13:30N 39°53' W 073°51'917.4
2017-Sep-28 13:00N 40°02' W 073°50'1017.7
2017-Sep-28 12:26N 40°12' W 073°49'817.2
2017-Sep-28 11:58N 40°20' W 073°49'716.0
2017-Sep-28 11:30N 40°27' W 073°50'815.4
2017-Sep-28 11:00N 40°31' W 073°59'715.0
2017-Sep-28 10:30N 40°37' W 074°03'4 7.2
2017-Sep-28 10:01N 40°39' W 074°08'2 4.6
2017-Sep-28 09:30N 40°39' W 074°11'1 1.3
2017-Sep-28 09:00N 40°38' W 074°11'0 0.0
2017-Sep-28 08:30N 40°38' W 074°11'0 0.0
2017-Sep-28 07:57N 40°38' W 074°11'0 0.0
2017-Sep-28 07:30N 40°38' W 074°11'0 0.0
2017-Sep-28 07:00N 40°38' W 074°11'0 0.0
2017-Sep-28 06:30N 40°38' W 074°11'0 0.0
2017-Sep-28 06:00N 40°38' W 074°11'0 0.0
2017-Sep-28 05:30N 40°38' W 074°11'0 0.0
2017-Sep-28 05:00N 40°38' W 074°11'0 0.0
2017-Sep-28 04:30N 40°38' W 074°11'0 0.0
2017-Sep-28 04:00N 40°38' W 074°11'0 0.0
2017-Sep-28 03:30N 40°38' W 074°11'0 0.0
2017-Sep-28 03:00N 40°38' W 074°11'0 0.0
2017-Sep-28 02:30N 40°38' W 074°11'2 4.3
2017-Sep-28 02:01N 40°38' W 074°09'4 7.4
2017-Sep-28 01:30N 40°39' W 074°04'4 8.9
2017-Sep-28 01:00N 40°35' W 074°02'612.5
2017-Sep-28 00:30N 40°30' W 073°56'612.8
2017-Sep-28 00:00N 40°27' W 073°49'3 6.5
2017-Sep-27 23:30N 40°24' W 073°47'2 4.0
2017-Sep-27 23:00N 40°22' W 073°47'611.9
2017-Sep-27 22:30N 40°16' W 073°47'1913.9
2017-Sep-27 21:05N 39°57' W 073°42'213.8
2017-Sep-27 20:55N 39°55' W 073°42'714.9
2017-Sep-27 20:29N 39°48' W 073°41'817.2
2017-Sep-27 20:00N 39°40' W 073°42'918.7
2017-Sep-27 19:30N 39°32' W 073°48'918.6
2017-Sep-27 19:00N 39°24' W 073°55'2818.0
2017-Sep-27 17:26N 39°01' W 074°16'818.1
2017-Sep-27 16:59N 38°54' W 074°21'917.7
2017-Sep-27 16:29N 38°48' W 074°29'1516.2
2017-Sep-27 15:32N 38°45' W 074°49'117.3
2017-Sep-27 15:27N 38°45' W 074°51'815.3
2017-Sep-27 14:54N 38°45' W 075°01'512.8
2017-Sep-27 14:30N 38°50' W 075°04'815.1
2017-Sep-27 14:00N 38°57' W 075°07'918.3
2017-Sep-27 13:30N 39°06' W 075°12'918.9
2017-Sep-27 13:00N 39°14' W 075°18'1019.4
2017-Sep-27 12:30N 39°21' W 075°26'918.7
2017-Sep-27 12:01N 39°28' W 075°34'815.2
2017-Sep-27 11:31N 39°36' W 075°34'713.3
2017-Sep-27 11:01N 39°42' W 075°31'611.1
2017-Sep-27 10:31N 39°47' W 075°28'510.4
2017-Sep-27 10:01N 39°50' W 075°22'611.5
2017-Sep-27 09:31N 39°51' W 075°15'5 9.2
2017-Sep-27 09:01N 39°53' W 075°09'1 2.8
2017-Sep-27 08:29N 39°54' W 075°08'0 0.0
2017-Sep-27 07:59N 39°54' W 075°08'0 0.0
2017-Sep-27 07:29N 39°54' W 075°08'0 0.0
2017-Sep-27 06:59N 39°54' W 075°08'0 0.0
2017-Sep-27 06:29N 39°54' W 075°08'0 0.0
2017-Sep-27 05:59N 39°54' W 075°08'0 0.0
2017-Sep-27 05:29N 39°54' W 075°08'0 0.0
2017-Sep-27 04:56N 39°54' W 075°08'0 0.0
2017-Sep-27 04:29N 39°54' W 075°08'0 0.0
2017-Sep-27 03:59N 39°54' W 075°08'0 0.0
2017-Sep-27 03:29N 39°54' W 075°08'0 0.0
2017-Sep-27 02:59N 39°54' W 075°08'0 0.1
2017-Sep-27 02:29N 39°54' W 075°08'0 0.0
2017-Sep-27 01:59N 39°54' W 075°08'0 0.1
2017-Sep-27 01:29N 39°54' W 075°08'0 0.0
2017-Sep-27 00:59N 39°54' W 075°08'0 0.0
2017-Sep-27 00:28N 39°54' W 075°08'0 0.0
2017-Sep-26 23:59N 39°54' W 075°08'0 0.0
2017-Sep-26 23:29N 39°54' W 075°08'0 0.0
2017-Sep-26 22:56N 39°54' W 075°08'0 0.0
2017-Sep-26 22:28N 39°54' W 075°08'0 0.0
2017-Sep-26 21:59N 39°54' W 075°08'0 0.0
2017-Sep-26 21:29N 39°54' W 075°08'0 0.0
2017-Sep-26 20:59N 39°54' W 075°08'0 0.0
2017-Sep-26 20:29N 39°54' W 075°08'0 0.0
2017-Sep-26 19:59N 39°54' W 075°08'0 0.0
2017-Sep-26 19:29N 39°54' W 075°08'0 0.0
2017-Sep-26 18:59N 39°54' W 075°08'0 0.0
2017-Sep-26 18:29N 39°54' W 075°08'0 0.0
2017-Sep-26 17:59N 39°54' W 075°08'0 0.0
2017-Sep-26 17:29N 39°54' W 075°08'0 0.0
2017-Sep-26 16:59N 39°54' W 075°08'0 0.0
2017-Sep-26 16:28N 39°54' W 075°08'0 0.0
2017-Sep-26 15:58N 39°54' W 075°08'0 0.0
2017-Sep-26 15:29N 39°54' W 075°08'0 0.0
2017-Sep-26 15:00N 39°54' W 075°08'2 3.1
2017-Sep-26 14:30N 39°53' W 075°09'4 7.0
2017-Sep-26 14:00N 39°52' W 075°14'4 8.6
2017-Sep-26 13:30N 39°51' W 075°19'5 9.7
2017-Sep-26 13:01N 39°48' W 075°24'4 8.3
2017-Sep-26 12:30N 39°46' W 075°29'611.1
2017-Sep-26 12:00N 39°41' W 075°31'612.4
2017-Sep-26 11:31N 39°35' W 075°33'713.0
2017-Sep-26 11:00N 39°28' W 075°34'816.5
2017-Sep-26 10:31N 39°22' W 075°27'917.1
2017-Sep-26 10:00N 39°15' W 075°20'917.1
2017-Sep-26 09:30N 39°08' W 075°14'917.2
2017-Sep-26 09:01N 39°01' W 075°09'917.1
2017-Sep-26 08:30N 38°53' W 075°04'612.3
2017-Sep-26 08:01N 38°47' W 075°02'5 8.3
2017-Sep-26 07:27N 38°44' W 074°57'4 7.9
2017-Sep-26 07:00N 38°42' W 074°54'5 9.3
2017-Sep-26 06:29N 38°38' W 074°50'3 6.5
2017-Sep-26 06:00N 38°35' W 074°47'4 6.8
2017-Sep-26 05:26N 38°32' W 074°44'4 6.8
2017-Sep-26 04:52N 38°29' W 074°41'2 5.2
2017-Sep-26 04:30N 38°28' W 074°40'5 9.3
2017-Sep-26 04:00N 38°23' W 074°38'714.3
2017-Sep-26 03:30N 38°16' W 074°38'816.7
2017-Sep-26 03:00N 38°08' W 074°38'917.5
2017-Sep-26 02:30N 37°59' W 074°38'917.0
2017-Sep-26 02:00N 37°51' W 074°38'916.9
2017-Sep-26 01:30N 37°42' W 074°39'816.5
2017-Sep-26 00:59N 37°34' W 074°38'816.6
2017-Sep-26 00:30N 37°26' W 074°39'816.6
2017-Sep-26 00:00N 37°17' W 074°39'69717.1
2017-Sep-24 07:14N 26°23' W 079°22'419.5
2017-Sep-24 07:00N 26°19' W 079°23'1019.7
2017-Sep-24 06:30N 26°09' W 079°24'1019.7
2017-Sep-24 06:00N 25°59' W 079°25'1020.2
2017-Sep-24 05:30N 25°50' W 079°27'1020.5
2017-Sep-24 05:00N 25°39' W 079°29'1020.7
2017-Sep-24 04:30N 25°29' W 079°31'  
Track history (hours):
 
Tides and Currents Weather Stations Pressure Air Temp Water Temp Dewpoint Dewpoint Depression Visibility Wind Speed Wind Dir Waves Ship Positions

Spirit Of Tokyo

Last reported at 2017-Oct-02 14:38 UTC. Time now 2017-Oct-19 23:37 UTC.
Position N 25°18' W 079°47'.
Warning: this ship's position is 17 days out of date.

Length 210 m; draft 9.4 m.

Type: Ship (hazmat cat A). MMSI: 564056000.

Date/timePositionNaut miles runAvg speedWind from/ knotsBaromVisibWave heightAir tempDewpointWater temp
2017-Oct-02 14:38N 25°18' W 079°47'216.9
2017-Oct-02 14:30N 25°20' W 079°48'816.6
2017-Oct-02 14:00N 25°28' W 079°51'816.6
2017-Oct-02 13:31N 25°36' W 079°54'816.6
2017-Oct-02 13:00N 25°44' W 079°56'816.7
2017-Oct-02 12:31N 25°52' W 079°58'816.5
2017-Oct-02 12:01N 25°60' W 080°01'713.0
2017-Oct-02 11:30N 26°05' W 080°05'2 3.8
2017-Oct-02 10:59N 26°04' W 080°07'0 0.2
2017-Oct-02 10:29N 26°04' W 080°07'0 0.0
2017-Oct-02 09:59N 26°04' W 080°07'0 0.0
2017-Oct-02 09:29N 26°04' W 080°07'0 0.0
2017-Oct-02 08:50N 26°04' W 080°07'0 0.0
2017-Oct-02 08:30N 26°04' W 080°07'0 0.0
2017-Oct-02 08:00N 26°04' W 080°07'0 0.0
2017-Oct-02 07:30N 26°04' W 080°07'0 0.0
2017-Oct-02 07:00N 26°04' W 080°07'0 0.0
2017-Oct-02 06:20N 26°04' W 080°07'0 0.0
2017-Oct-02 05:57N 26°04' W 080°07'0 0.0
2017-Oct-02 05:27N 26°04' W 080°07'0 0.0
2017-Oct-02 04:56N 26°04' W 080°07'0 0.0
2017-Oct-02 04:27N 26°04' W 080°07'0 0.0
2017-Oct-02 03:56N 26°04' W 080°07'0 0.0
2017-Oct-02 03:27N 26°04' W 080°07'0 0.0
2017-Oct-02 02:57N 26°04' W 080°07'0 0.0
2017-Oct-02 02:27N 26°04' W 080°07'0 0.0
2017-Oct-02 01:59N 26°04' W 080°07'0 0.0
2017-Oct-02 01:26N 26°04' W 080°07'0 0.0
2017-Oct-02 00:56N 26°04' W 080°07'0 0.0
2017-Oct-02 00:26N 26°04' W 080°07'0 0.0
2017-Oct-01 23:56N 26°04' W 080°07'0 0.0
2017-Oct-01 23:30N 26°04' W 080°07'1 2.7
2017-Oct-01 23:00N 26°06' W 080°07'4 7.9
2017-Oct-01 22:30N 26°05' W 080°02'1 1.8
2017-Oct-01 22:00N 26°06' W 080°02'4 7.4
2017-Oct-01 21:30N 26°09' W 079°60'713.6
2017-Oct-01 21:00N 26°16' W 079°59'917.4
2017-Oct-01 20:30N 26°24' W 079°56'917.5
2017-Oct-01 20:00N 26°32' W 079°53'2217.4
2017-Oct-01 18:44N 26°53' W 079°45'517.5
2017-Oct-01 18:27N 26°58' W 079°43'309 7.6
2017-Sep-30 01:33N 32°07' W 079°49'114.5
2017-Sep-30 01:30N 32°07' W 079°49'52215.2
2017-Sep-28 15:15N 39°22' W 073°53'717.3
2017-Sep-28 14:51N 39°29' W 073°53'617.6
2017-Sep-28 14:30N 39°35' W 073°52'917.4
2017-Sep-28 14:00N 39°44' W 073°51'917.5
2017-Sep-28 13:30N 39°53' W 073°51'917.4
2017-Sep-28 13:00N 40°02' W 073°50'1017.7
2017-Sep-28 12:26N 40°12' W 073°49'817.2
2017-Sep-28 11:58N 40°20' W 073°49'716.0
2017-Sep-28 11:30N 40°27' W 073°50'815.4
2017-Sep-28 11:00N 40°31' W 073°59'715.0
2017-Sep-28 10:30N 40°37' W 074°03'4 7.2
2017-Sep-28 10:01N 40°39' W 074°08'2 4.6
2017-Sep-28 09:30N 40°39' W 074°11'1 1.3
2017-Sep-28 09:00N 40°38' W 074°11'0 0.0
2017-Sep-28 08:30N 40°38' W 074°11'0 0.0
2017-Sep-28 07:57N 40°38' W 074°11'0 0.0
2017-Sep-28 07:30N 40°38' W 074°11'0 0.0
2017-Sep-28 07:00N 40°38' W 074°11'0 0.0
2017-Sep-28 06:30N 40°38' W 074°11'0 0.0
2017-Sep-28 06:00N 40°38' W 074°11'0 0.0
2017-Sep-28 05:30N 40°38' W 074°11'0 0.0
2017-Sep-28 05:00N 40°38' W 074°11'0 0.0
2017-Sep-28 04:30N 40°38' W 074°11'0 0.0
2017-Sep-28 04:00N 40°38' W 074°11'0 0.0
2017-Sep-28 03:30N 40°38' W 074°11'0 0.0
2017-Sep-28 03:00N 40°38' W 074°11'0 0.0
2017-Sep-28 02:30N 40°38' W 074°11'2 4.3
2017-Sep-28 02:01N 40°38' W 074°09'4 7.4
2017-Sep-28 01:30N 40°39' W 074°04'4 8.9
2017-Sep-28 01:00N 40°35' W 074°02'612.5
2017-Sep-28 00:30N 40°30' W 073°56'612.8
2017-Sep-28 00:00N 40°27' W 073°49'3 6.5
2017-Sep-27 23:30N 40°24' W 073°47'2 4.0
2017-Sep-27 23:00N 40°22' W 073°47'611.9
2017-Sep-27 22:30N 40°16' W 073°47'1913.9
2017-Sep-27 21:05N 39°57' W 073°42'213.8
2017-Sep-27 20:55N 39°55' W 073°42'714.9
2017-Sep-27 20:29N 39°48' W 073°41'817.2
2017-Sep-27 20:00N 39°40' W 073°42'918.7
2017-Sep-27 19:30N 39°32' W 073°48'918.6
2017-Sep-27 19:00N 39°24' W 073°55'2818.0
2017-Sep-27 17:26N 39°01' W 074°16'818.1
2017-Sep-27 16:59N 38°54' W 074°21'917.7
2017-Sep-27 16:29N 38°48' W 074°29'1516.2
2017-Sep-27 15:32N 38°45' W 074°49'117.3
2017-Sep-27 15:27N 38°45' W 074°51'815.3
2017-Sep-27 14:54N 38°45' W 075°01'512.8
2017-Sep-27 14:30N 38°50' W 075°04'815.1
2017-Sep-27 14:00N 38°57' W 075°07'918.3
2017-Sep-27 13:30N 39°06' W 075°12'918.9
2017-Sep-27 13:00N 39°14' W 075°18'1019.4
2017-Sep-27 12:30N 39°21' W 075°26'918.7
2017-Sep-27 12:01N 39°28' W 075°34'815.2
2017-Sep-27 11:31N 39°36' W 075°34'713.3
2017-Sep-27 11:01N 39°42' W 075°31'611.1
2017-Sep-27 10:31N 39°47' W 075°28'510.4
2017-Sep-27 10:01N 39°50' W 075°22'611.5
2017-Sep-27 09:31N 39°51' W 075°15'5 9.2
2017-Sep-27 09:01N 39°53' W 075°09'1 2.8
2017-Sep-27 08:29N 39°54' W 075°08'0 0.0
2017-Sep-27 07:59N 39°54' W 075°08'0 0.0
2017-Sep-27 07:29N 39°54' W 075°08'0 0.0
2017-Sep-27 06:59N 39°54' W 075°08'0 0.0
2017-Sep-27 06:29N 39°54' W 075°08'0 0.0
2017-Sep-27 05:59N 39°54' W 075°08'0 0.0
2017-Sep-27 05:29N 39°54' W 075°08'0 0.0
2017-Sep-27 04:56N 39°54' W 075°08'0 0.0
2017-Sep-27 04:29N 39°54' W 075°08'0 0.0
2017-Sep-27 03:59N 39°54' W 075°08'0 0.0
2017-Sep-27 03:29N 39°54' W 075°08'0 0.0
2017-Sep-27 02:59N 39°54' W 075°08'0 0.1
2017-Sep-27 02:29N 39°54' W 075°08'0 0.0
2017-Sep-27 01:59N 39°54' W 075°08'0 0.1
2017-Sep-27 01:29N 39°54' W 075°08'0 0.0
2017-Sep-27 00:59N 39°54' W 075°08'0 0.0
2017-Sep-27 00:28N 39°54' W 075°08'0 0.0
2017-Sep-26 23:59N 39°54' W 075°08'0 0.0
2017-Sep-26 23:29N 39°54' W 075°08'0 0.0
2017-Sep-26 22:56N 39°54' W 075°08'0 0.0
2017-Sep-26 22:28N 39°54' W 075°08'0 0.0
2017-Sep-26 21:59N 39°54' W 075°08'0 0.0
2017-Sep-26 21:29N 39°54' W 075°08'0 0.0
2017-Sep-26 20:59N 39°54' W 075°08'0 0.0
2017-Sep-26 20:29N 39°54' W 075°08'0 0.0
2017-Sep-26 19:59N 39°54' W 075°08'0 0.0
2017-Sep-26 19:29N 39°54' W 075°08'0 0.0
2017-Sep-26 18:59N 39°54' W 075°08'0 0.0
2017-Sep-26 18:29N 39°54' W 075°08'0 0.0
2017-Sep-26 17:59N 39°54' W 075°08'0 0.0
2017-Sep-26 17:29N 39°54' W 075°08'0 0.0
2017-Sep-26 16:59N 39°54' W 075°08'0 0.0
2017-Sep-26 16:28N 39°54' W 075°08'0 0.0
2017-Sep-26 15:58N 39°54' W 075°08'0 0.0
2017-Sep-26 15:29N 39°54' W 075°08'0 0.0
2017-Sep-26 15:00N 39°54' W 075°08'2 3.1
2017-Sep-26 14:30N 39°53' W 075°09'4 7.0
2017-Sep-26 14:00N 39°52' W 075°14'4 8.6
2017-Sep-26 13:30N 39°51' W 075°19'5 9.7
2017-Sep-26 13:01N 39°48' W 075°24'4 8.3
2017-Sep-26 12:30N 39°46' W 075°29'611.1
2017-Sep-26 12:00N 39°41' W 075°31'612.4
2017-Sep-26 11:31N 39°35' W 075°33'713.0
2017-Sep-26 11:00N 39°28' W 075°34'816.5
2017-Sep-26 10:31N 39°22' W 075°27'917.1
2017-Sep-26 10:00N 39°15' W 075°20'917.1
2017-Sep-26 09:30N 39°08' W 075°14'917.2
2017-Sep-26 09:01N 39°01' W 075°09'917.1
2017-Sep-26 08:30N 38°53' W 075°04'612.3
2017-Sep-26 08:01N 38°47' W 075°02'5 8.3
2017-Sep-26 07:27N 38°44' W 074°57'4 7.9
2017-Sep-26 07:00N 38°42' W 074°54'5 9.3
2017-Sep-26 06:29N 38°38' W 074°50'3 6.5
2017-Sep-26 06:00N 38°35' W 074°47'4 6.8
2017-Sep-26 05:26N 38°32' W 074°44'4 6.8
2017-Sep-26 04:52N 38°29' W 074°41'2 5.2
2017-Sep-26 04:30N 38°28' W 074°40'5 9.3
2017-Sep-26 04:00N 38°23' W 074°38'714.3
2017-Sep-26 03:30N 38°16' W 074°38'816.7
2017-Sep-26 03:00N 38°08' W 074°38'917.5
2017-Sep-26 02:30N 37°59' W 074°38'917.0
2017-Sep-26 02:00N 37°51' W 074°38'916.9
2017-Sep-26 01:30N 37°42' W 074°39'816.5
2017-Sep-26 00:59N 37°34' W 074°38'816.6
2017-Sep-26 00:30N 37°26' W 074°39'816.6
2017-Sep-26 00:00N 37°17' W 074°39'69717.1
2017-Sep-24 07:14N 26°23' W 079°22'419.5
2017-Sep-24 07:00N 26°19' W 079°23'1019.7
2017-Sep-24 06:30N 26°09' W 079°24'1019.7
2017-Sep-24 06:00N 25°59' W 079°25'1020.2
2017-Sep-24 05:30N 25°50' W 079°27'1020.5
2017-Sep-24 05:00N 25°39' W 079°29'1020.7
2017-Sep-24 04:30N 25°29' W 079°31'  

Dump ship's entire track history